Flight Track Log - Related Links

Times and Time Zones

All times are in EDT time to prevent confusion due to time zone crossing. See the SKW2961 flight status page for this flight to view local times or setup timezone preferences in your user account.

Time Position Orientation Groundspeed Altitude Reporting Facility
EDT Latitude Longitude Course Direction KTS MPH feet Rate Location/Type
Fri 06:06:42 PM 33.4333 -112.0333 270° West 171 197 1,700  Level Phoenix TRACON
Fri 06:07:43 PM 33.4333 -112.1000 270° West 220 253 3,400 1,950 Climbing Phoenix TRACON
Fri 06:08:42 PM 33.4333 -112.1833 348° North 265 305 5,600 2,316 Climbing Phoenix TRACON
Fri 06:09:37 PM 33.5000 -112.2000 18° North 289 333 7,800 2,296 Climbing Phoenix TRACON
Fri 06:10:37 PM 33.5833 -112.1667 North 310 357 10,000 1,900 Climbing Phoenix TRACON
Fri 06:11:37 PM 33.6667 -112.1500 19° North 329 379 11,600 1,721 Climbing Phoenix TRACON
Fri 06:12:53 PM 33.7794 -112.1028 46° Northeast 349 402 13,900 1,632 Climbing Albuquerque Center
Fri 06:13:53 PM 33.8386 -112.0289 49° Northeast 337 388 15,300 1,600 Climbing Albuquerque Center
Fri 06:14:53 PM 33.9069 -111.9350 39° Northeast 337 388 17,100 1,600 Climbing Albuquerque Center
Fri 06:15:53 PM 33.9828 -111.8614 25° Northeast 350 403 18,500 1,400 Climbing Albuquerque Center
Fri 06:16:53 PM 34.0894 -111.8022 26° Northeast 367 422 19,900 1,200 Climbing Albuquerque Center
Fri 06:17:53 PM 34.1769 -111.7517 25° Northeast 378 435 20,900 1,000 Climbing Albuquerque Center
Fri 06:18:53 PM 34.2856 -111.6894 24° Northeast 390 449 21,900 1,000 Climbing Albuquerque Center
Fri 06:19:53 PM 34.3875 -111.6344 26° Northeast 390 449 22,900 950 Climbing Albuquerque Center
Fri 06:20:53 PM 34.4836 -111.5764 24° Northeast 398 458 23,800 850 Climbing Albuquerque Center
Fri 06:21:53 PM 34.5878 -111.5189 26° Northeast 405 466 24,600 800 Climbing Albuquerque Center
Fri 06:22:53 PM 34.6964 -111.4536 24° Northeast 416 479 25,400 750 Climbing Albuquerque Center
Fri 06:23:53 PM 34.8028 -111.3956 25° Northeast 422 486 26,100 800 Climbing Albuquerque Center
Fri 06:24:53 PM 34.9133 -111.3328 24° Northeast 427 491 27,000 850 Climbing Albuquerque Center
Fri 06:25:53 PM 35.0239 -111.2722 28° Northeast 427 491 27,800 650 Climbing Albuquerque Center
Fri 06:26:53 PM 35.1325 -111.2014 25° Northeast 427 491 28,300 500 Climbing Albuquerque Center
Fri 06:27:53 PM 35.2453 -111.1381 26° Northeast 432 497 28,800 350 Climbing Albuquerque Center
Fri 06:28:53 PM 35.3728 -111.0625 25° Northeast 438 504 29,000 64 Climbing Albuquerque Center
Fri 06:31:01 PM 35.6167 -110.9253 26° Northeast 464 534 29,000  Level Denver Center
Fri 06:32:01 PM 35.7214 -110.8625 25° Northeast 454 522 29,000  Level Denver Center
Fri 06:33:01 PM 35.8406 -110.7928 27° Northeast 459 528 29,000  Level Denver Center
Fri 06:34:01 PM 35.9558 -110.7200 25° Northeast 459 528 29,000  Level Denver Center
Fri 06:35:01 PM 36.0750 -110.6522 27° Northeast 459 528 29,000  Level Denver Center
Fri 06:36:01 PM 36.1881 -110.5817 25° Northeast 453 521 29,000  Level Denver Center
Fri 06:37:01 PM 36.3050 -110.5133 27° Northeast 458 527 29,000  Level Denver Center
Fri 06:38:01 PM 36.4308 -110.4353 26° Northeast 458 527 29,000  Level Denver Center
Fri 06:39:01 PM 36.5458 -110.3664 26° Northeast 458 527 29,000  Level Denver Center
Fri 06:40:01 PM 36.6628 -110.2950 26° Northeast 453 521 29,000  Level Denver Center
Fri 06:41:01 PM 36.7756 -110.2258 23° Northeast 453 521 29,000  Level Denver Center
Fri 06:42:01 PM 36.9028 -110.1569 27° Northeast 463 533 29,000  Level Denver Center
Fri 06:43:01 PM 37.0050 -110.0922 25° Northeast 472 543 29,000  Level Denver Center
Fri 06:44:01 PM 37.1219 -110.0225 27° Northeast 465 535 29,000  Level Denver Center
Fri 06:45:01 PM 37.2472 -109.9425 26° Northeast 454 522 29,000  Level Denver Center
Fri 06:46:01 PM 37.3619 -109.8722 27° Northeast 454 522 29,000  Level Denver Center
Fri 06:47:01 PM 37.4639 -109.8067 26° Northeast 454 522 29,000  Level Denver Center
Fri 06:48:01 PM 37.5786 -109.7358 26° Northeast 454 522 29,000 -600 Level Denver Center
Fri 06:49:01 PM 37.7100 -109.6553 26° Northeast 460 529 27,800 -1,000 Descending Denver Center
Fri 06:50:01 PM 37.8289 -109.5817 26° Northeast 470 541 27,000 -400 Descending Denver Center
Fri 06:51:01 PM 37.9478 -109.5081 26° Northeast 479 551 27,000  Level Denver Center
Fri 06:52:01 PM 38.0664 -109.4339 27° Northeast 466 536 27,000  Level Denver Center
Fri 06:53:01 PM 38.1808 -109.3594 26° Northeast 455 524 27,000 -800 Level Denver Center
Fri 06:54:01 PM 38.2847 -109.2950 27° Northeast 455 524 25,400 -2,300 Descending Denver Center
Fri 06:55:01 PM 38.4097 -109.2125 27° Northeast 460 529 22,400 -2,750 Descending Denver Center
Fri 06:56:01 PM 38.5197 -109.1397 25° Northeast 446 513 19,900 -2,200 Descending Denver Center
Fri 06:57:01 PM 38.6278 -109.0747 26° Northeast 433 498 18,000 -1,950 Descending Denver Center
Fri 06:58:01 PM 38.7208 -109.0172 27° Northeast 421 484 16,000 -1,800 Descending Denver Center
Fri 06:59:01 PM 38.8203 -108.9514 28° Northeast 379 436 14,400 -1,350 Descending Denver Center
Fri 07:00:01 PM 38.9047 -108.8931 46° Northeast 354 407 13,300 -1,150 Descending Denver Center
Fri 07:01:01 PM 38.9606 -108.8175 70° East 329 379 12,100 -1,400 Descending Denver Center
Fri 07:02:01 PM 38.9897 -108.7144 74° East 301 346 10,500 -1,600 Descending Denver Center
Fri 07:03:01 PM 39.0150 -108.6028 89° East 301 346 8,900 -1,200 Descending Denver Center
Fri 07:04:01 PM 39.0164 -108.5175 51° Northeast 267 307 8,100 -1,150 Descending Denver Center
Fri 07:05:01 PM 39.0531 -108.4597 350° North 209 241 6,600 -1,200 Descending Denver Center
Fri 07:06:01 PM 39.0944 -108.4689 302° West 153 176 5,700 -850 Descending Denver Center
Fri 07:07:01 PM 39.1167 -108.5150 302° West 156 180 4,900 -800 Descending Denver Center

Login

Don't have an account? Register now (free) for customized features, flight alerts, and more!